Terminal Aerodrome Forecast
Issued by NWS

Home | Current Version | Previous Version | Text Only | Print | Product List | Glossary On
Versions: 1 2 3 4 5 6 7 8 9 10 11 12 13 14
000
FTAK31 PAJN 180500
TAFAPG
TAF
PAPG 180520Z 1806/1906 VRB04KT P6SM SCT035 BKN070
     FM180900 15007KT P6SM VCSH SCT035 OVC060
     FM181500 15007KT P6SM -RA BKN030 OVC040
     FM182000 VRB05KT P6SM VCSH SCT030 BKN040
     FM190300 08005KT P6SM -RA SCT025 OVC050
      AMD LTD TO CLD VIS AND WIND 1806/1815=

USA.gov is the U.S. government's official web portal to all federal, state and local government web resources and services.